HALF-HOURLY OBSERVATIONS INDEX

050

Central Western Plains - south

CONDOBOLIN AIRPORT AWS

Site: 050137
Alt: 192.6m
6km E of CONDOBOLIN


  Time     Wind        Temp  DP   Baro     Rain since   Rain past  Vis(m), Cloud(base in m), Weather
  local        km/h                         9am  last   hr   10m    
Mon 11:00  WSW 11/ 19  30.5 15.0  1015.5    0.0   0.0   0.0   0.0   ----- 
Mon 11:30  WSW  9/ 13  31.2 13.0  1015.3    0.0   0.0   0.0   0.0   ----- 
Mon 12:00    W  7/ 17  32.3 13.5  1015.1    0.0   0.0   0.0   0.0   ----- 
Mon 12:30    S  9/ 20  33.3 14.4  1014.8    0.0   0.0   0.0   0.0   ----- 
Mon 13:00    S 13/ 22  33.4 11.3  1014.5    0.0   0.0   0.0   0.0   ----- 
Mon 13:30  WSW 11/ 19  33.7 11.5  1014.3    0.0   0.0   0.0   0.0   ----- 
Mon 14:00  SSW  7/ 17  34.1 10.0  1013.9    0.0   0.0   0.0   0.0   ----- 
Mon 14:30    S 15/ 24  34.5  9.7  1013.4    0.0   0.0   0.0   0.0   ----- 
Mon 15:00   SE  9/ 15  34.7  7.7  1013.0    0.0   0.0   0.0   0.0   ----- 
Mon 15:30  SSW 11/ 20  35.1  7.2  1012.6    0.0   0.0   0.0   0.0   ----- 
Mon 16:00  SSW  9/ 17  34.3  6.6  1012.2    0.0   0.0   0.0   0.0   ----- 
Mon 16:30    W 11/ 20  34.6  6.0  1012.0    0.0   0.0   0.0   0.0   ----- 

WEST WYALONG AIRPORT AWS

Site: 050017
Alt: 257.0m
97km S of CONDOBOLIN


  Time     Wind        Temp  DP   Baro     Rain since   Rain past  Vis(m), Cloud(base in m), Weather
  local        km/h                         9am  last   hr   10m    
Mon 11:00  SSE 11/ 19  31.3  8.3  1015.9    0.0   0.0   0.0   0.0   ----- 
Mon 11:30    S 17/ 24  32.8  6.2  1015.8    0.0   0.0   0.0   0.0   ----- 
Mon 12:00  SSW 11/ 20  33.7  3.5  1015.5    0.0   0.0   0.0   0.0   ----- 
Mon 12:30    S 15/ 26  34.3  3.0  1015.3    0.0   0.0   0.0   0.0   ----- 
Mon 13:00   SW 19/ 26  33.4 -1.0  1015.1    0.0   0.0   0.0   0.0   ----- 
Mon 13:30  WSW 11/ 15  34.2 -1.7  1015.0    0.0   0.0   0.0   0.0   ----- 
Mon 14:00  SSE 15/ 20  34.2 -1.7  1014.7    0.0   0.0   0.0   0.0   ----- 
Mon 14:30    W  7/ 11  34.6 -1.4  1014.5    0.0   0.0   0.0   0.0   ----- 
Mon 15:00    S 17/ 20  33.6 -2.2  1014.1    0.0   0.0   0.0   0.0   ----- 
Mon 15:30    E  6/  9  35.4 -0.8  1013.5    0.0   0.0   0.0   0.0   ----- 
Mon 16:00   SE  9/ 19  34.6 -1.4  1013.2    0.0   0.0   0.0   0.0   ----- 
Mon 16:30    S 13/ 17  35.4 -0.8  1012.8    0.0   0.0   0.0   0.0   -----